Página principal
Imagens de satélite Previsões 15 diasClimaMeteorologia maritima Ciclones Descargas eléctricas AeroportosFAQ Notícias Sobre
Tempo : Europa África América do Norte América do Sul Ásia Austrália-Oceania Outros
Línguas Contacto

Cambridge, Inglaterra

latitude: 52-12N, longitude: 000-11E, altura: 15 m


METAR: EGSC 211950Z 22024G38KT 170V260 9999 BKN014 11/08 Q1019
TAF: EGSC 211701Z 2118/2120 22020KT 9999 BKN020 TEMPO 2118/2120 23023G33KT BKN014

Hora: 01:16 (01:16 UTC)

Observação actual do tempo

O boletim foi feito há 5 horas e 26 minutos, às 19:50 UTC
Vento 24 kt de sudoeste com rajadas de 38 kt, variando entre sul e oeste
Temperatura 11°C
Humidade 82%
Pressão 1019 hPa
Visibilidade 10 km ou mais
Nuvens fragmentadasa uma altura de 1400 ft

Mudar unidades

Previsão

O boletim foi feito há 8 horas e 15 minutos, às 17:01 UTC
Previsão válida de 21 às 18 UTC a 21 às 20 UTC
Vento 20 kt de sudoeste
Visibilidade 10 km ou mais
Nuvens fragmentadasa uma altura de 2000 ft
Temporariamente
de 21 às 18 UTC a 21 às 20 UTC
Vento 23 kt de sudoeste com rajadas de 33 kt
Nuvens fragmentadasa uma altura de 1400 ft
As informações contidas neste sítio estão sujeitas a uma declaração de exoneração de responsabilidade
Tempo : Europa África América do Norte América do Sul Ásia Austrália-Oceania Outros
Imagens de satélite Previsões 15 diasClimaMeteorologia maritima Ciclones Descargas eléctricas AeroportosFAQ Línguas Contacto Notícias Sobre